sensor_id;sensor_type;location;lat;lon;timestamp;pressure;altitude;pressure_sealevel;temperature;humidity
70841;BME280;58465;51.534;9.934;2023-06-26T00:01:12;99818.09;;;22.77;77.29
70841;BME280;58465;51.534;9.934;2023-06-26T00:03:37;99821.22;;;22.71;78.94
70841;BME280;58465;51.534;9.934;2023-06-26T00:06:02;99807.72;;;22.70;77.75
70841;BME280;58465;51.534;9.934;2023-06-26T00:08:28;99814.81;;;22.72;79.40
70841;BME280;58465;51.534;9.934;2023-06-26T00:10:53;99809.28;;;22.61;77.66
70841;BME280;58465;51.534;9.934;2023-06-26T00:13:19;99824.25;;;22.55;73.85
70841;BME280;58465;51.534;9.934;2023-06-26T00:15:44;99819.19;;;22.62;79.60
70841;BME280;58465;51.534;9.934;2023-06-26T00:18:12;99810.06;;;22.63;76.81
70841;BME280;58465;51.534;9.934;2023-06-26T00:20:44;99808.72;;;22.69;75.91
70841;BME280;58465;51.534;9.934;2023-06-26T00:23:11;99811.44;;;22.69;72.05
70841;BME280;58465;51.534;9.934;2023-06-26T00:25:38;99809.91;;;22.77;76.61
70841;BME280;58465;51.534;9.934;2023-06-26T00:28:03;99809.34;;;22.72;71.88
70841;BME280;58465;51.534;9.934;2023-06-26T00:30:28;99806.59;;;22.85;78.44
70841;BME280;58465;51.534;9.934;2023-06-26T00:32:54;99816.91;;;22.92;76.61
70841;BME280;58465;51.534;9.934;2023-06-26T00:35:19;99802.94;;;22.73;72.58
70841;BME280;58465;51.534;9.934;2023-06-26T00:37:44;99811.31;;;22.70;72.13
70841;BME280;58465;51.534;9.934;2023-06-26T00:40:10;99804.28;;;22.68;71.79
70841;BME280;58465;51.534;9.934;2023-06-26T00:42:35;99803.25;;;22.69;78.08
70841;BME280;58465;51.534;9.934;2023-06-26T00:45:01;99803.19;;;22.46;77.54
70841;BME280;58465;51.534;9.934;2023-06-26T00:47:26;99803.19;;;22.46;76.23
70841;BME280;58465;51.534;9.934;2023-06-26T00:49:52;99804.25;;;22.44;78.77
70841;BME280;58465;51.534;9.934;2023-06-26T00:52:19;99798.06;;;22.42;78.04
70841;BME280;58465;51.534;9.934;2023-06-26T00:54:44;99799.00;;;22.30;76.01
70841;BME280;58465;51.534;9.934;2023-06-26T00:57:10;99792.34;;;22.34;75.68
70841;BME280;58465;51.534;9.934;2023-06-26T00:59:35;99785.25;;;22.31;74.14
70841;BME280;58465;51.534;9.934;2023-06-26T01:02:01;99787.59;;;22.25;74.16
70841;BME280;58465;51.534;9.934;2023-06-26T01:04:26;99787.88;;;22.33;78.90
70841;BME280;58465;51.534;9.934;2023-06-26T01:06:57;99783.66;;;22.29;78.42
70841;BME280;58465;51.534;9.934;2023-06-26T01:09:23;99780.06;;;22.28;75.20
70841;BME280;58465;51.534;9.934;2023-06-26T01:11:49;99781.75;;;22.18;74.37
70841;BME280;58465;51.534;9.934;2023-06-26T01:14:15;99782.59;;;22.18;77.09
70841;BME280;58465;51.534;9.934;2023-06-26T01:16:40;99783.16;;;22.11;72.55
70841;BME280;58465;51.534;9.934;2023-06-26T01:19:11;99784.03;;;22.11;77.10
70841;BME280;58465;51.534;9.934;2023-06-26T01:21:42;99783.50;;;22.06;73.69
70841;BME280;58465;51.534;9.934;2023-06-26T01:24:14;99784.38;;;22.07;77.38
70841;BME280;58465;51.534;9.934;2023-06-26T01:26:46;99788.72;;;22.09;79.41
70841;BME280;58465;51.534;9.934;2023-06-26T01:29:14;99786.44;;;22.03;78.79
70841;BME280;58465;51.534;9.934;2023-06-26T01:31:40;99776.97;;;21.96;79.26
70841;BME280;58465;51.534;9.934;2023-06-26T01:34:07;99781.81;;;21.80;76.90
70841;BME280;58465;51.534;9.934;2023-06-26T01:36:32;99777.66;;;21.74;76.84
70841;BME280;58465;51.534;9.934;2023-06-26T01:38:57;99771.06;;;21.66;75.32
70841;BME280;58465;51.534;9.934;2023-06-26T01:41:22;99767.72;;;21.62;73.41
70841;BME280;58465;51.534;9.934;2023-06-26T01:44:13;99764.34;;;21.59;75.26
70841;BME280;58465;51.534;9.934;2023-06-26T01:47:00;99766.19;;;21.58;75.72
70841;BME280;58465;51.534;9.934;2023-06-26T01:49:44;99760.75;;;21.58;76.30
70841;BME280;58465;51.534;9.934;2023-06-26T01:52:20;99762.81;;;21.55;76.50
70841;BME280;58465;51.534;9.934;2023-06-26T01:57:15;99764.22;;;21.47;79.10
70841;BME280;58465;51.534;9.934;2023-06-26T01:59:43;99759.16;;;21.43;79.18
70841;BME280;58465;51.534;9.934;2023-06-26T02:02:10;99753.81;;;21.29;73.22
70841;BME280;58465;51.534;9.934;2023-06-26T02:04:35;99745.97;;;21.24;77.89
70841;BME280;58465;51.534;9.934;2023-06-26T02:07:02;99751.66;;;21.21;73.62
70841;BME280;58465;51.534;9.934;2023-06-26T02:09:27;99752.63;;;21.20;76.99
70841;BME280;58465;51.534;9.934;2023-06-26T02:11:52;99747.47;;;21.16;74.35
70841;BME280;58465;51.534;9.934;2023-06-26T02:14:18;99747.09;;;21.22;79.70
70841;BME280;58465;51.534;9.934;2023-06-26T02:16:43;99750.53;;;21.11;78.32
70841;BME280;58465;51.534;9.934;2023-06-26T02:19:08;99739.56;;;21.13;74.83
70841;BME280;58465;51.534;9.934;2023-06-26T02:21:33;99737.91;;;21.10;77.36
70841;BME280;58465;51.534;9.934;2023-06-26T02:24:00;99731.19;;;20.90;75.76
70841;BME280;58465;51.534;9.934;2023-06-26T02:26:26;99735.59;;;20.79;73.93
70841;BME280;58465;51.534;9.934;2023-06-26T02:28:51;99733.75;;;20.79;75.97
70841;BME280;58465;51.534;9.934;2023-06-26T02:31:16;99740.94;;;20.80;74.21
70841;BME280;58465;51.534;9.934;2023-06-26T02:33:42;99737.56;;;20.77;76.69
70841;BME280;58465;51.534;9.934;2023-06-26T02:36:07;99732.03;;;20.78;77.05
70841;BME280;58465;51.534;9.934;2023-06-26T02:38:32;99737.16;;;20.83;78.89
70841;BME280;58465;51.534;9.934;2023-06-26T02:40:58;99731.19;;;20.90;79.44
70841;BME280;58465;51.534;9.934;2023-06-26T02:43:23;99730.50;;;20.87;76.91
70841;BME280;58465;51.534;9.934;2023-06-26T02:45:48;99733.88;;;20.90;77.62
70841;BME280;58465;51.534;9.934;2023-06-26T02:48:13;99732.13;;;20.77;75.71
70841;BME280;58465;51.534;9.934;2023-06-26T02:50:39;99737.66;;;20.62;75.09
70841;BME280;58465;51.534;9.934;2023-06-26T02:53:04;99734.34;;;20.45;75.69
70841;BME280;58465;51.534;9.934;2023-06-26T02:55:29;99736.88;;;20.60;78.27
70841;BME280;58465;51.534;9.934;2023-06-26T02:57:54;99733.53;;;20.69;79.16
70841;BME280;58465;51.534;9.934;2023-06-26T03:00:20;99728.34;;;20.79;80.32
70841;BME280;58465;51.534;9.934;2023-06-26T03:02:45;99724.41;;;20.70;74.69
70841;BME280;58465;51.534;9.934;2023-06-26T03:05:10;99728.44;;;20.78;76.26
70841;BME280;58465;51.534;9.934;2023-06-26T03:07:38;99723.97;;;20.77;77.41
70841;BME280;58465;51.534;9.934;2023-06-26T03:10:03;99722.66;;;20.69;74.76
70841;BME280;58465;51.534;9.934;2023-06-26T03:12:30;99720.19;;;20.66;74.48
70841;BME280;58465;51.534;9.934;2023-06-26T03:14:55;99725.88;;;20.49;73.93
70841;BME280;58465;51.534;9.934;2023-06-26T03:17:21;99725.38;;;20.57;79.45
70841;BME280;58465;51.534;9.934;2023-06-26T03:19:46;99724.38;;;20.58;79.12
70841;BME280;58465;51.534;9.934;2023-06-26T03:22:11;99724.09;;;20.62;78.50
70841;BME280;58465;51.534;9.934;2023-06-26T03:24:36;99723.75;;;20.67;79.10
70841;BME280;58465;51.534;9.934;2023-06-26T03:27:02;99725.06;;;20.61;77.57
70841;BME280;58465;51.534;9.934;2023-06-26T03:29:28;99723.50;;;20.57;77.38
70841;BME280;58465;51.534;9.934;2023-06-26T03:31:55;99721.44;;;20.48;76.14
70841;BME280;58465;51.534;9.934;2023-06-26T03:34:20;99725.50;;;20.55;79.03
70841;BME280;58465;51.534;9.934;2023-06-26T03:36:46;99722.78;;;20.55;77.95
70841;BME280;58465;51.534;9.934;2023-06-26T03:39:11;99726.13;;;20.59;78.72
70841;BME280;58465;51.534;9.934;2023-06-26T03:41:37;99728.94;;;20.57;78.08
70841;BME280;58465;51.534;9.934;2023-06-26T03:44:02;99728.75;;;20.60;77.71
70841;BME280;58465;51.534;9.934;2023-06-26T03:46:28;99723.97;;;20.64;78.99
70841;BME280;58465;51.534;9.934;2023-06-26T03:48:53;99721.81;;;20.69;74.76
70841;BME280;58465;51.534;9.934;2023-06-26T03:51:19;99718.78;;;20.73;78.75
70841;BME280;58465;51.534;9.934;2023-06-26T03:53:44;99711.41;;;20.76;79.70
70841;BME280;58465;51.534;9.934;2023-06-26T03:56:09;99711.91;;;20.68;74.70
70841;BME280;58465;51.534;9.934;2023-06-26T03:58:35;99715.31;;;20.71;77.29
70841;BME280;58465;51.534;9.934;2023-06-26T04:01:00;99714.66;;;20.81;74.42
70841;BME280;58465;51.534;9.934;2023-06-26T04:03:26;99716.84;;;20.76;74.17
70841;BME280;58465;51.534;9.934;2023-06-26T04:05:51;99718.34;;;20.80;78.81
70841;BME280;58465;51.534;9.934;2023-06-26T04:08:16;99711.41;;;20.76;75.64
70841;BME280;58465;51.534;9.934;2023-06-26T04:10:42;99718.56;;;20.77;73.71
70841;BME280;58465;51.534;9.934;2023-06-26T04:13:07;99709.44;;;20.78;74.23
70841;BME280;58465;51.534;9.934;2023-06-26T04:15:32;99717.69;;;20.89;76.96
70841;BME280;58465;51.534;9.934;2023-06-26T04:17:57;99706.19;;;20.98;76.73
70841;BME280;58465;51.534;9.934;2023-06-26T04:20:23;99714.47;;;21.09;77.17
70841;BME280;58465;51.534;9.934;2023-06-26T04:22:48;99710.31;;;21.16;78.12
70841;BME280;58465;51.534;9.934;2023-06-26T04:25:13;99716.63;;;21.17;78.14
70841;BME280;58465;51.534;9.934;2023-06-26T04:27:39;99717.31;;;21.20;77.46
70841;BME280;58465;51.534;9.934;2023-06-26T04:30:05;99721.13;;;21.30;78.79
70841;BME280;58465;51.534;9.934;2023-06-26T04:32:30;99714.03;;;21.28;77.26
70841;BME280;58465;51.534;9.934;2023-06-26T04:34:56;99713.94;;;21.29;77.70
70841;BME280;58465;51.534;9.934;2023-06-26T04:37:22;99714.69;;;21.31;78.27
70841;BME280;58465;51.534;9.934;2023-06-26T04:39:47;99713.19;;;21.27;72.46
70841;BME280;58465;51.534;9.934;2023-06-26T04:42:12;99716.44;;;21.32;76.67
70841;BME280;58465;51.534;9.934;2023-06-26T04:44:38;99717.53;;;21.42;76.55
70841;BME280;58465;51.534;9.934;2023-06-26T04:47:03;99720.56;;;21.13;72.54
70841;BME280;58465;51.534;9.934;2023-06-26T04:49:29;99719.00;;;21.08;76.07
70841;BME280;58465;51.534;9.934;2023-06-26T04:51:55;99709.69;;;21.25;76.72
70841;BME280;58465;51.534;9.934;2023-06-26T04:54:21;99706.31;;;21.34;71.87
70841;BME280;58465;51.534;9.934;2023-06-26T04:56:46;99706.56;;;21.31;73.02
70841;BME280;58465;51.534;9.934;2023-06-26T04:59:12;99702.19;;;21.29;70.05
70841;BME280;58465;51.534;9.934;2023-06-26T05:01:38;99689.69;;;21.39;74.76
70841;BME280;58465;51.534;9.934;2023-06-26T05:04:04;99698.38;;;21.44;74.57
70841;BME280;58465;51.534;9.934;2023-06-26T05:06:30;99699.97;;;21.72;75.67
70841;BME280;58465;51.534;9.934;2023-06-26T05:08:55;99698.63;;;21.77;74.09
70841;BME280;58465;51.534;9.934;2023-06-26T05:11:20;99696.41;;;21.82;71.58
70841;BME280;58465;51.534;9.934;2023-06-26T05:13:46;99688.66;;;22.02;74.87
70841;BME280;58465;51.534;9.934;2023-06-26T05:16:12;99687.75;;;22.14;74.98
70841;BME280;58465;51.534;9.934;2023-06-26T05:18:37;99688.13;;;22.20;71.78
70841;BME280;58465;51.534;9.934;2023-06-26T05:21:03;99685.75;;;22.40;74.39
70841;BME280;58465;51.534;9.934;2023-06-26T05:23:31;99689.75;;;22.47;74.07
70841;BME280;58465;51.534;9.934;2023-06-26T05:25:56;99685.28;;;22.46;72.76
70841;BME280;58465;51.534;9.934;2023-06-26T05:28:23;99685.16;;;22.47;66.93
70841;BME280;58465;51.534;9.934;2023-06-26T05:30:53;99683.09;;;22.62;74.20
70841;BME280;58465;51.534;9.934;2023-06-26T05:33:18;99686.69;;;22.63;72.36
70841;BME280;58465;51.534;9.934;2023-06-26T05:35:48;99678.91;;;22.69;68.83
70841;BME280;58465;51.534;9.934;2023-06-26T05:38:13;99685.06;;;22.95;72.91
70841;BME280;58465;51.534;9.934;2023-06-26T05:40:39;99680.13;;;23.11;72.50
70841;BME280;58465;51.534;9.934;2023-06-26T05:43:06;99677.53;;;23.32;74.60
70841;BME280;58465;51.534;9.934;2023-06-26T05:45:31;99678.53;;;23.31;69.62
70841;BME280;58465;51.534;9.934;2023-06-26T05:47:56;99670.97;;;23.68;74.42
70841;BME280;58465;51.534;9.934;2023-06-26T05:50:22;99663.88;;;23.88;71.94
70841;BME280;58465;51.534;9.934;2023-06-26T05:52:47;99662.06;;;24.09;73.58
70841;BME280;58465;51.534;9.934;2023-06-26T05:55:13;99660.91;;;23.91;66.39
70841;BME280;58465;51.534;9.934;2023-06-26T05:57:40;99661.53;;;24.15;72.79
70841;BME280;58465;51.534;9.934;2023-06-26T06:00:07;99658.75;;;24.37;72.31
70841;BME280;58465;51.534;9.934;2023-06-26T06:02:36;99662.28;;;24.28;72.55
70841;BME280;58465;51.534;9.934;2023-06-26T06:05:02;99660.91;;;24.23;65.20
70841;BME280;58465;51.534;9.934;2023-06-26T06:07:27;99661.41;;;24.28;71.06
70841;BME280;58465;51.534;9.934;2023-06-26T06:09:52;99649.56;;;24.38;71.60
70841;BME280;58465;51.534;9.934;2023-06-26T06:12:17;99655.41;;;25.07;74.41
70841;BME280;58465;51.534;9.934;2023-06-26T06:14:43;99655.75;;;26.04;70.98
70841;BME280;58465;51.534;9.934;2023-06-26T06:17:08;99661.22;;;26.81;67.76
70841;BME280;58465;51.534;9.934;2023-06-26T06:19:33;99658.78;;;27.34;64.68
70841;BME280;58465;51.534;9.934;2023-06-26T06:21:58;99648.41;;;27.65;61.38
70841;BME280;58465;51.534;9.934;2023-06-26T06:24:23;99652.66;;;28.04;64.65
70841;BME280;58465;51.534;9.934;2023-06-26T06:26:49;99653.31;;;28.52;63.82
70841;BME280;58465;51.534;9.934;2023-06-26T06:29:14;99639.19;;;28.29;59.17
70841;BME280;58465;51.534;9.934;2023-06-26T06:31:39;99653.19;;;28.35;65.31
70841;BME280;58465;51.534;9.934;2023-06-26T06:34:05;99643.47;;;27.96;62.84
70841;BME280;58465;51.534;9.934;2023-06-26T06:36:30;99648.00;;;27.87;65.91
70841;BME280;58465;51.534;9.934;2023-06-26T06:38:56;99643.47;;;27.96;67.85
70841;BME280;58465;51.534;9.934;2023-06-26T06:41:21;99645.09;;;28.34;61.73
70841;BME280;58465;51.534;9.934;2023-06-26T06:43:46;99645.53;;;29.08;62.02
70841;BME280;58465;51.534;9.934;2023-06-26T06:46:12;99641.63;;;29.79;58.90
70841;BME280;58465;51.534;9.934;2023-06-26T06:48:37;99632.97;;;29.74;63.52
70841;BME280;58465;51.534;9.934;2023-06-26T06:51:02;99637.41;;;30.09;57.21
70841;BME280;58465;51.534;9.934;2023-06-26T06:53:28;99636.75;;;30.31;51.28
70841;BME280;58465;51.534;9.934;2023-06-26T06:55:53;99633.56;;;29.94;62.01
70841;BME280;58465;51.534;9.934;2023-06-26T06:58:19;99635.66;;;29.49;54.27
70841;BME280;58465;51.534;9.934;2023-06-26T07:00:45;99636.81;;;29.39;58.82
70841;BME280;58465;51.534;9.934;2023-06-26T07:03:10;99633.06;;;29.48;58.76
70841;BME280;58465;51.534;9.934;2023-06-26T07:05:36;99633.56;;;29.51;65.49
70841;BME280;58465;51.534;9.934;2023-06-26T07:08:02;99628.28;;;29.32;50.84
70841;BME280;58465;51.534;9.934;2023-06-26T07:10:28;99633.38;;;29.45;63.25
70841;BME280;58465;51.534;9.934;2023-06-26T07:12:53;99634.44;;;29.26;49.74
70841;BME280;58465;51.534;9.934;2023-06-26T07:15:19;99633.78;;;29.32;64.06
70841;BME280;58465;51.534;9.934;2023-06-26T07:17:44;99638.06;;;29.27;59.57
70841;BME280;58465;51.534;9.934;2023-06-26T07:20:09;99636.72;;;29.05;52.79
70841;BME280;58465;51.534;9.934;2023-06-26T07:22:40;99628.97;;;28.39;51.07
70841;BME280;58465;51.534;9.934;2023-06-26T07:25:05;99622.28;;;27.61;51.04
70841;BME280;58465;51.534;9.934;2023-06-26T07:27:40;99619.81;;;27.30;52.21
70841;BME280;58465;51.534;9.934;2023-06-26T07:30:06;99617.47;;;27.08;54.19
70841;BME280;58465;51.534;9.934;2023-06-26T07:32:34;99621.00;;;27.28;56.09
70841;BME280;58465;51.534;9.934;2023-06-26T07:34:59;99618.47;;;27.07;55.89
70841;BME280;58465;51.534;9.934;2023-06-26T07:37:24;99621.47;;;27.14;55.44
70841;BME280;58465;51.534;9.934;2023-06-26T07:39:50;99611.31;;;27.61;58.14
70841;BME280;58465;51.534;9.934;2023-06-26T07:42:15;99618.91;;;27.94;53.91
70841;BME280;58465;51.534;9.934;2023-06-26T07:44:41;99615.81;;;27.80;57.70
70841;BME280;58465;51.534;9.934;2023-06-26T07:47:07;99612.66;;;28.20;56.86
70841;BME280;58465;51.534;9.934;2023-06-26T07:49:32;99618.50;;;28.07;51.81
70841;BME280;58465;51.534;9.934;2023-06-26T07:51:57;99624.16;;;28.59;66.42
70841;BME280;58465;51.534;9.934;2023-06-26T07:54:23;99613.38;;;28.39;48.34
70841;BME280;58465;51.534;9.934;2023-06-26T07:57:00;99603.41;;;28.21;47.98
70841;BME280;58465;51.534;9.934;2023-06-26T07:59:26;99621.66;;;28.48;57.84
70841;BME280;58465;51.534;9.934;2023-06-26T08:01:53;99610.25;;;29.04;64.07
70841;BME280;58465;51.534;9.934;2023-06-26T08:04:19;99617.75;;;29.53;65.21
70841;BME280;58465;51.534;9.934;2023-06-26T08:06:47;99605.84;;;29.87;64.18
70841;BME280;58465;51.534;9.934;2023-06-26T08:09:12;99622.47;;;30.28;67.45
70841;BME280;58465;51.534;9.934;2023-06-26T08:11:38;99622.09;;;30.22;64.56
70841;BME280;58465;51.534;9.934;2023-06-26T08:14:04;99621.63;;;30.43;65.81
70841;BME280;58465;51.534;9.934;2023-06-26T08:16:30;99613.50;;;30.50;52.01
70841;BME280;58465;51.534;9.934;2023-06-26T08:18:55;99623.84;;;30.96;65.29
70841;BME280;58465;51.534;9.934;2023-06-26T08:21:20;99625.72;;;30.96;62.93
70841;BME280;58465;51.534;9.934;2023-06-26T08:23:46;99615.22;;;30.51;49.51
70841;BME280;58465;51.534;9.934;2023-06-26T08:26:11;99617.94;;;30.10;47.61
70841;BME280;58465;51.534;9.934;2023-06-26T08:28:36;99622.81;;;31.14;66.08
70841;BME280;58465;51.534;9.934;2023-06-26T08:31:02;99622.38;;;31.88;65.20
70841;BME280;58465;51.534;9.934;2023-06-26T08:33:28;99627.19;;;31.47;62.68
70841;BME280;58465;51.534;9.934;2023-06-26T08:35:53;99621.88;;;31.38;54.88
70841;BME280;58465;51.534;9.934;2023-06-26T08:38:19;99624.84;;;31.28;62.00
70841;BME280;58465;51.534;9.934;2023-06-26T08:40:46;99623.88;;;30.80;55.44
70841;BME280;58465;51.534;9.934;2023-06-26T08:43:11;99626.25;;;31.16;63.10
70841;BME280;58465;51.534;9.934;2023-06-26T08:45:36;99622.81;;;31.14;64.26
70841;BME280;58465;51.534;9.934;2023-06-26T08:48:03;99625.22;;;31.09;53.46
70841;BME280;58465;51.534;9.934;2023-06-26T08:50:34;99625.56;;;31.22;51.16
70841;BME280;58465;51.534;9.934;2023-06-26T08:53:21;99615.63;;;31.44;43.22
70841;BME280;58465;51.534;9.934;2023-06-26T08:55:52;99619.25;;;31.52;63.32
70841;BME280;58465;51.534;9.934;2023-06-26T08:58:17;99608.03;;;31.85;65.42
70841;BME280;58465;51.534;9.934;2023-06-26T09:00:43;99605.06;;;31.94;63.30
70841;BME280;58465;51.534;9.934;2023-06-26T09:03:09;99603.47;;;32.00;63.94
70841;BME280;58465;51.534;9.934;2023-06-26T09:05:35;99603.59;;;32.06;56.01
70841;BME280;58465;51.534;9.934;2023-06-26T09:08:01;99602.47;;;31.54;48.76
70841;BME280;58465;51.534;9.934;2023-06-26T09:10:26;99596.31;;;31.83;61.71
70841;BME280;58465;51.534;9.934;2023-06-26T09:12:55;99587.63;;;31.63;43.02
70841;BME280;58465;51.534;9.934;2023-06-26T09:15:21;99581.53;;;31.76;46.07
70841;BME280;58465;51.534;9.934;2023-06-26T09:17:48;99578.06;;;31.74;56.55
70841;BME280;58465;51.534;9.934;2023-06-26T09:20:13;99573.03;;;32.08;61.20
70841;BME280;58465;51.534;9.934;2023-06-26T09:22:43;99577.19;;;32.04;62.62
70841;BME280;58465;51.534;9.934;2023-06-26T09:25:09;99584.31;;;31.98;51.11
70841;BME280;58465;51.534;9.934;2023-06-26T09:27:35;99586.22;;;31.98;50.76
70841;BME280;58465;51.534;9.934;2023-06-26T09:30:04;99598.06;;;32.06;52.17
70841;BME280;58465;51.534;9.934;2023-06-26T09:32:34;99603.22;;;32.18;57.08
70841;BME280;58465;51.534;9.934;2023-06-26T09:35:02;99609.91;;;32.46;62.71
70841;BME280;58465;51.534;9.934;2023-06-26T09:37:28;99608.78;;;32.55;61.34
70841;BME280;58465;51.534;9.934;2023-06-26T09:39:53;99613.19;;;32.87;47.58
70841;BME280;58465;51.534;9.934;2023-06-26T09:42:19;99620.81;;;33.23;58.61
70841;BME280;58465;51.534;9.934;2023-06-26T09:44:45;99618.78;;;33.46;43.60
70841;BME280;58465;51.534;9.934;2023-06-26T09:47:11;99619.72;;;33.68;59.58
70841;BME280;58465;51.534;9.934;2023-06-26T09:49:41;99608.44;;;33.84;40.53
70841;BME280;58465;51.534;9.934;2023-06-26T09:52:06;99611.91;;;34.43;60.59
70841;BME280;58465;51.534;9.934;2023-06-26T09:54:33;99609.22;;;33.93;45.92
70841;BME280;58465;51.534;9.934;2023-06-26T09:57:08;99604.63;;;33.70;56.45
70841;BME280;58465;51.534;9.934;2023-06-26T09:59:34;99601.44;;;33.23;53.41
70841;BME280;58465;51.534;9.934;2023-06-26T10:02:00;99612.66;;;33.06;58.03
70841;BME280;58465;51.534;9.934;2023-06-26T10:04:26;99609.09;;;32.98;62.10
70841;BME280;58465;51.534;9.934;2023-06-26T10:06:54;99604.41;;;32.98;63.10
70841;BME280;58465;51.534;9.934;2023-06-26T10:09:21;99608.06;;;33.13;63.89
70841;BME280;58465;51.534;9.934;2023-06-26T10:11:54;99603.66;;;32.29;53.54
70841;BME280;58465;51.534;9.934;2023-06-26T10:14:21;99608.50;;;32.27;54.03
70841;BME280;58465;51.534;9.934;2023-06-26T10:16:49;99613.09;;;32.58;47.98
70841;BME280;58465;51.534;9.934;2023-06-26T10:19:16;99604.44;;;32.38;42.97
70841;BME280;58465;51.534;9.934;2023-06-26T10:21:46;99608.69;;;32.49;55.64
70841;BME280;58465;51.534;9.934;2023-06-26T10:24:12;99609.44;;;32.80;47.31
70841;BME280;58465;51.534;9.934;2023-06-26T10:26:43;99607.53;;;31.89;41.89
70841;BME280;58465;51.534;9.934;2023-06-26T10:29:10;99613.63;;;31.77;43.22
70841;BME280;58465;51.534;9.934;2023-06-26T10:31:37;99624.91;;;31.59;43.81
70841;BME280;58465;51.534;9.934;2023-06-26T10:34:04;99626.16;;;31.48;46.10
70841;BME280;58465;51.534;9.934;2023-06-26T10:36:31;99626.22;;;31.32;45.21
70841;BME280;58465;51.534;9.934;2023-06-26T10:39:14;99625.41;;;31.70;42.50
70841;BME280;58465;51.534;9.934;2023-06-26T10:41:41;99628.78;;;31.25;44.14
70841;BME280;58465;51.534;9.934;2023-06-26T10:44:16;99632.25;;;30.22;42.16
70841;BME280;58465;51.534;9.934;2023-06-26T10:46:52;99629.34;;;30.15;41.96
70841;BME280;58465;51.534;9.934;2023-06-26T10:49:18;99629.50;;;30.14;44.13
70841;BME280;58465;51.534;9.934;2023-06-26T10:51:50;99642.28;;;30.88;41.41
70841;BME280;58465;51.534;9.934;2023-06-26T10:54:18;99653.78;;;31.40;50.67
70841;BME280;58465;51.534;9.934;2023-06-26T10:56:50;99670.81;;;31.52;45.90
70841;BME280;58465;51.534;9.934;2023-06-26T10:59:20;99663.47;;;31.83;50.78
70841;BME280;58465;51.534;9.934;2023-06-26T11:01:54;99660.53;;;30.32;41.05
70841;BME280;58465;51.534;9.934;2023-06-26T11:04:49;99668.13;;;30.46;44.77
70841;BME280;58465;51.534;9.934;2023-06-26T11:09:59;99686.03;;;29.50;42.09
70841;BME280;58465;51.534;9.934;2023-06-26T11:15:00;99718.38;;;28.51;46.76
70841;BME280;58465;51.534;9.934;2023-06-26T11:17:25;99742.00;;;27.52;52.82
70841;BME280;58465;51.534;9.934;2023-06-26T11:19:52;99759.50;;;27.42;57.98
70841;BME280;58465;51.534;9.934;2023-06-26T11:22:18;99792.47;;;27.03;61.35
70841;BME280;58465;51.534;9.934;2023-06-26T11:24:44;99794.41;;;25.94;69.47
70841;BME280;58465;51.534;9.934;2023-06-26T11:27:09;99759.44;;;24.52;72.78
70841;BME280;58465;51.534;9.934;2023-06-26T11:29:34;99773.84;;;23.77;75.94
70841;BME280;58465;51.534;9.934;2023-06-26T11:32:02;99779.41;;;23.76;78.28
70841;BME280;58465;51.534;9.934;2023-06-26T11:34:30;99769.25;;;23.66;77.26
70841;BME280;58465;51.534;9.934;2023-06-26T11:36:57;99762.44;;;23.83;79.40
70841;BME280;58465;51.534;9.934;2023-06-26T11:39:22;99771.94;;;24.22;79.41
70841;BME280;58465;51.534;9.934;2023-06-26T11:41:47;99767.94;;;24.37;75.91
70841;BME280;58465;51.534;9.934;2023-06-26T11:44:13;99762.75;;;24.66;78.77
70841;BME280;58465;51.534;9.934;2023-06-26T11:46:40;99776.16;;;25.22;76.46
70841;BME280;58465;51.534;9.934;2023-06-26T11:49:06;99774.06;;;26.27;70.82
70841;BME280;58465;51.534;9.934;2023-06-26T11:51:32;99767.72;;;27.42;69.33
70841;BME280;58465;51.534;9.934;2023-06-26T11:54:00;99767.69;;;27.51;64.85
70841;BME280;58465;51.534;9.934;2023-06-26T11:56:28;99773.69;;;27.27;64.79
70841;BME280;58465;51.534;9.934;2023-06-26T11:58:56;99768.41;;;27.63;63.50
70841;BME280;58465;51.534;9.934;2023-06-26T12:01:23;99770.03;;;28.65;64.11
70841;BME280;58465;51.534;9.934;2023-06-26T12:03:50;99774.44;;;30.57;58.74
70841;BME280;58465;51.534;9.934;2023-06-26T12:06:16;99775.50;;;31.78;50.19
70841;BME280;58465;51.534;9.934;2023-06-26T12:08:42;99782.69;;;33.18;53.58
70841;BME280;58465;51.534;9.934;2023-06-26T12:11:08;99774.78;;;32.39;49.70
70841;BME280;58465;51.534;9.934;2023-06-26T12:13:33;99778.06;;;31.87;53.78
70841;BME280;58465;51.534;9.934;2023-06-26T12:15:59;99777.78;;;31.66;48.84
70841;BME280;58465;51.534;9.934;2023-06-26T12:18:24;99784.50;;;30.32;52.15
70841;BME280;58465;51.534;9.934;2023-06-26T12:20:51;99767.41;;;29.61;64.02
70841;BME280;58465;51.534;9.934;2023-06-26T12:23:20;99764.63;;;28.01;55.80
70841;BME280;58465;51.534;9.934;2023-06-26T12:25:45;99773.03;;;27.53;55.00
70841;BME280;58465;51.534;9.934;2023-06-26T12:28:18;99768.59;;;27.89;56.94
70841;BME280;58465;51.534;9.934;2023-06-26T12:30:47;99777.31;;;27.84;54.31
70841;BME280;58465;51.534;9.934;2023-06-26T12:33:14;99774.25;;;28.15;57.50
70841;BME280;58465;51.534;9.934;2023-06-26T12:35:41;99767.06;;;28.59;53.94
70841;BME280;58465;51.534;9.934;2023-06-26T12:38:07;99763.94;;;28.71;51.58
70841;BME280;58465;51.534;9.934;2023-06-26T12:40:44;99769.19;;;31.12;44.15
70841;BME280;58465;51.534;9.934;2023-06-26T12:43:11;99775.13;;;34.17;44.49
70841;BME280;58465;51.534;9.934;2023-06-26T12:45:37;99770.25;;;34.48;41.24
70841;BME280;58465;51.534;9.934;2023-06-26T12:48:08;99775.31;;;31.87;41.86
70841;BME280;58465;51.534;9.934;2023-06-26T12:50:38;99775.16;;;31.81;46.45
70841;BME280;58465;51.534;9.934;2023-06-26T12:53:03;99761.84;;;34.99;40.03
70841;BME280;58465;51.534;9.934;2023-06-26T12:55:28;99772.63;;;36.14;35.92
70841;BME280;58465;51.534;9.934;2023-06-26T12:57:53;99776.03;;;37.44;39.61
70841;BME280;58465;51.534;9.934;2023-06-26T13:00:19;99773.13;;;36.78;41.92
70841;BME280;58465;51.534;9.934;2023-06-26T13:02:44;99765.50;;;33.83;36.91
70841;BME280;58465;51.534;9.934;2023-06-26T13:05:10;99761.78;;;33.91;37.03